Clearwater, FL

2:28 PM EDT on September 16, 2014 (GMT -0400)
Saint Petersburg-Clearwater International | Change Station
CLOSE
Current Station
Airport
Location: St. Petersburg Airport,
Elevation: 10 ft
Nearby Weather Stations

Elev 10 ft 27.91 °N, 82.69 °W | Updated 35 minutes ago

Overcast
Overcast
88 °F
Feels Like 94 °F
N
6
Wind Variable Wind from Variable

Today
High -- | Low -- °F
--% Chance of Precip.
Yesterday
High -- | Low -- °F
Precip. -- in
7:16 AM 7:34 PM
Last Quarter, 43% visible
Pressure 30.05 in
Visibility 10.0 miles
Clouds Few 4100 ft
Few 4800 ft
Mostly Cloudy 10000 ft
Heat Index 94 °F
Dew Point 71 °F
Humidity 57%
Rainfall 0.00 in
Snow Depth Not available.
UV 7 out of 12
Pollen 6.70 out of 12
Air Quality Not available.
Flu Activity Not available.
METAR KPIE 161753Z VRB05KT 10SM FEW041 FEW048 BKN100 31/22 A3005 RMK AO2 SLP176 T03110217 10311 20250 56011

More Conditions Fewer Conditions

Pressure 30.05 in
Visibility 10.0 miles
Clouds Few 4100 ft
Few 4800 ft
Mostly Cloudy 10000 ft
Heat Index 94 °F
Dew Point 71 °F
Humidity 57%
Rainfall 0.00 in
Snow Depth Not available.
UV 7 out of 12
Pollen 6.70 out of 12
Air Quality Not available.
Flu Activity Not available.
METAR KPIE 161753Z VRB05KT 10SM FEW041 FEW048 BKN100 31/22 A3005 RMK AO2 SLP176 T03110217 10311 20250 56011

More Conditions Fewer Conditions

10-Day Weather Forecast

Almanac

Astronomy

Sep. 16, 2014 Rise Set
Actual Time 7:16 AM EDT 7:34 PM EDT
Civil Twilight 6:53 AM EDT 7:58 PM EDT
Nautical Twilight 6:25 AM EDT 8:25 PM EDT
Astronomical Twilight 5:58 AM EDT 8:53 PM EDT
Moon 12:47 AM EDT 2:35 PM EDT
Length of Visible Light 13h 04m
Length of Day
12h 17m
Tomorrow will be 1m 39s shorter.
Last Quarter, 43% of the Moon is Illuminated
Today
Last Quarter
Sep 24
New
Oct 1
First Quarter
Oct 8
Full
Oct 15
Last Quarter

Today's Extremes

State Highs State Lows

Community

WunderPhotos

Upload Photos

1,753,852 photos uploaded!

WunderBlogs® & News

Nearby

Air Quality

  Air Quality AQ Index Pollutant
Tuesday Moderate
PM2.5
Tuesday Good
OZONE
Wednesday Moderate
PM2.5
Wednesday Good
OZONE

Snow Depth

Station Depth Elevation
No new snow has been reported.

Earthquake Activity

City Distance Mag. Time & Date
No recent earthquake activity has been reported nearby.
Minimum magnitude displayed is 2.5.

Coastal Water Temperatures

Place Temperature
Port Manatee, FL 88.0 °F
St Petersburg, FL 88.0 °F
Old Port Tampa, FL 87.1 °F

Nearby Weather Stations